sensor_id;sensor_type;location;lat;lon;timestamp;P1;durP1;ratioP1;P2;durP2;ratioP2
6614;SDS011;3343;42.896;23.912;2023-02-15T00:01:54;7.67;;;4.93;;
6614;SDS011;3343;42.896;23.912;2023-02-15T00:04:24;9.17;;;4.77;;
6614;SDS011;3343;42.896;23.912;2023-02-15T00:07:11;9.30;;;4.40;;
6614;SDS011;3343;42.896;23.912;2023-02-15T00:09:39;6.90;;;4.60;;
6614;SDS011;3343;42.896;23.912;2023-02-15T00:12:06;11.03;;;6.10;;
6614;SDS011;3343;42.896;23.912;2023-02-15T00:14:33;10.47;;;5.83;;
6614;SDS011;3343;42.896;23.912;2023-02-15T00:17:00;11.03;;;4.93;;
6614;SDS011;3343;42.896;23.912;2023-02-15T00:19:28;11.03;;;5.20;;
6614;SDS011;3343;42.896;23.912;2023-02-15T00:21:55;9.93;;;4.77;;
6614;SDS011;3343;42.896;23.912;2023-02-15T00:24:22;10.33;;;6.30;;
6614;SDS011;3343;42.896;23.912;2023-02-15T00:26:48;6.63;;;3.80;;
6614;SDS011;3343;42.896;23.912;2023-02-15T00:29:16;7.33;;;4.77;;
6614;SDS011;3343;42.896;23.912;2023-02-15T00:31:44;8.10;;;4.77;;
6614;SDS011;3343;42.896;23.912;2023-02-15T00:34:12;7.97;;;4.70;;
6614;SDS011;3343;42.896;23.912;2023-02-15T00:36:42;7.97;;;4.17;;
6614;SDS011;3343;42.896;23.912;2023-02-15T00:39:08;7.23;;;4.67;;
6614;SDS011;3343;42.896;23.912;2023-02-15T00:41:36;7.93;;;4.50;;
6614;SDS011;3343;42.896;23.912;2023-02-15T00:44:03;6.97;;;3.80;;
6614;SDS011;3343;42.896;23.912;2023-02-15T00:46:30;8.50;;;4.53;;
6614;SDS011;3343;42.896;23.912;2023-02-15T00:48:57;8.23;;;4.10;;
6614;SDS011;3343;42.896;23.912;2023-02-15T00:51:24;5.63;;;3.80;;
6614;SDS011;3343;42.896;23.912;2023-02-15T00:53:52;7.20;;;4.47;;
6614;SDS011;3343;42.896;23.912;2023-02-15T00:56:19;7.73;;;5.23;;
6614;SDS011;3343;42.896;23.912;2023-02-15T00:58:46;10.30;;;5.83;;
6614;SDS011;3343;42.896;23.912;2023-02-15T01:01:14;8.43;;;4.80;;
6614;SDS011;3343;42.896;23.912;2023-02-15T01:03:41;12.17;;;5.70;;
6614;SDS011;3343;42.896;23.912;2023-02-15T01:06:09;9.40;;;5.00;;
6614;SDS011;3343;42.896;23.912;2023-02-15T01:08:37;10.00;;;4.40;;
6614;SDS011;3343;42.896;23.912;2023-02-15T01:11:06;14.17;;;5.70;;
6614;SDS011;3343;42.896;23.912;2023-02-15T01:13:34;9.57;;;5.03;;
6614;SDS011;3343;42.896;23.912;2023-02-15T01:16:01;8.33;;;5.27;;
6614;SDS011;3343;42.896;23.912;2023-02-15T01:18:29;9.40;;;5.13;;
6614;SDS011;3343;42.896;23.912;2023-02-15T01:20:56;9.53;;;5.00;;
6614;SDS011;3343;42.896;23.912;2023-02-15T01:23:23;13.17;;;6.53;;
6614;SDS011;3343;42.896;23.912;2023-02-15T01:25:50;8.70;;;5.77;;
6614;SDS011;3343;42.896;23.912;2023-02-15T01:28:19;10.83;;;5.30;;
6614;SDS011;3343;42.896;23.912;2023-02-15T01:30:45;9.97;;;5.10;;
6614;SDS011;3343;42.896;23.912;2023-02-15T01:33:12;11.93;;;5.80;;
6614;SDS011;3343;42.896;23.912;2023-02-15T01:35:43;13.57;;;6.23;;
6614;SDS011;3343;42.896;23.912;2023-02-15T01:38:11;9.53;;;5.47;;
6614;SDS011;3343;42.896;23.912;2023-02-15T01:40:38;17.90;;;7.53;;
6614;SDS011;3343;42.896;23.912;2023-02-15T01:43:07;14.43;;;7.60;;
6614;SDS011;3343;42.896;23.912;2023-02-15T01:45:38;14.27;;;7.40;;
6614;SDS011;3343;42.896;23.912;2023-02-15T01:48:12;9.70;;;6.90;;
6614;SDS011;3343;42.896;23.912;2023-02-15T01:50:47;19.40;;;9.63;;
6614;SDS011;3343;42.896;23.912;2023-02-15T01:53:18;18.30;;;9.53;;
6614;SDS011;3343;42.896;23.912;2023-02-15T01:55:50;16.73;;;8.60;;
6614;SDS011;3343;42.896;23.912;2023-02-15T01:58:20;24.20;;;12.53;;
6614;SDS011;3343;42.896;23.912;2023-02-15T02:00:50;24.07;;;10.87;;
6614;SDS011;3343;42.896;23.912;2023-02-15T02:03:17;20.70;;;11.63;;
6614;SDS011;3343;42.896;23.912;2023-02-15T02:05:50;22.23;;;12.07;;
6614;SDS011;3343;42.896;23.912;2023-02-15T02:08:17;29.20;;;12.40;;
6614;SDS011;3343;42.896;23.912;2023-02-15T02:10:44;22.17;;;11.07;;
6614;SDS011;3343;42.896;23.912;2023-02-15T02:13:11;22.03;;;10.17;;
6614;SDS011;3343;42.896;23.912;2023-02-15T02:15:39;18.37;;;8.17;;
6614;SDS011;3343;42.896;23.912;2023-02-15T02:18:19;18.53;;;9.60;;
6614;SDS011;3343;42.896;23.912;2023-02-15T02:21:04;15.57;;;8.13;;
6614;SDS011;3343;42.896;23.912;2023-02-15T02:23:51;14.27;;;8.43;;
6614;SDS011;3343;42.896;23.912;2023-02-15T02:26:43;26.60;;;10.23;;
6614;SDS011;3343;42.896;23.912;2023-02-15T02:29:50;19.60;;;9.87;;
6614;SDS011;3343;42.896;23.912;2023-02-15T02:32:45;18.33;;;8.90;;
6614;SDS011;3343;42.896;23.912;2023-02-15T02:35:36;21.43;;;9.23;;
6614;SDS011;3343;42.896;23.912;2023-02-15T02:38:10;15.57;;;8.37;;
6614;SDS011;3343;42.896;23.912;2023-02-15T02:40:52;22.47;;;10.17;;
6614;SDS011;3343;42.896;23.912;2023-02-15T02:43:28;21.10;;;9.50;;
6614;SDS011;3343;42.896;23.912;2023-02-15T02:46:02;18.87;;;10.63;;
6614;SDS011;3343;42.896;23.912;2023-02-15T02:48:34;20.40;;;9.90;;
6614;SDS011;3343;42.896;23.912;2023-02-15T02:51:02;21.27;;;11.60;;
6614;SDS011;3343;42.896;23.912;2023-02-15T02:53:29;17.90;;;10.17;;
6614;SDS011;3343;42.896;23.912;2023-02-15T02:55:59;15.73;;;9.23;;
6614;SDS011;3343;42.896;23.912;2023-02-15T02:58:33;14.40;;;7.90;;
6614;SDS011;3343;42.896;23.912;2023-02-15T03:01:05;16.83;;;8.37;;
6614;SDS011;3343;42.896;23.912;2023-02-15T03:03:37;15.93;;;7.87;;
6614;SDS011;3343;42.896;23.912;2023-02-15T03:06:09;18.53;;;9.90;;
6614;SDS011;3343;42.896;23.912;2023-02-15T03:08:40;16.30;;;8.57;;
6614;SDS011;3343;42.896;23.912;2023-02-15T03:11:09;16.83;;;8.10;;
6614;SDS011;3343;42.896;23.912;2023-02-15T03:13:38;14.97;;;9.10;;
6614;SDS011;3343;42.896;23.912;2023-02-15T03:16:06;15.63;;;9.57;;
6614;SDS011;3343;42.896;23.912;2023-02-15T03:18:54;18.23;;;8.10;;
6614;SDS011;3343;42.896;23.912;2023-02-15T03:21:26;19.70;;;8.17;;
6614;SDS011;3343;42.896;23.912;2023-02-15T03:23:58;16.93;;;8.23;;
6614;SDS011;3343;42.896;23.912;2023-02-15T03:26:30;16.67;;;8.07;;
6614;SDS011;3343;42.896;23.912;2023-02-15T03:29:00;17.80;;;7.90;;
6614;SDS011;3343;42.896;23.912;2023-02-15T03:31:32;13.43;;;9.20;;
6614;SDS011;3343;42.896;23.912;2023-02-15T03:34:06;23.17;;;10.30;;
6614;SDS011;3343;42.896;23.912;2023-02-15T03:36:37;16.90;;;8.63;;
6614;SDS011;3343;42.896;23.912;2023-02-15T03:39:12;16.33;;;8.07;;
6614;SDS011;3343;42.896;23.912;2023-02-15T03:41:46;12.37;;;7.23;;
6614;SDS011;3343;42.896;23.912;2023-02-15T03:44:22;17.40;;;9.30;;
6614;SDS011;3343;42.896;23.912;2023-02-15T03:46:54;17.47;;;8.43;;
6614;SDS011;3343;42.896;23.912;2023-02-15T03:49:29;21.03;;;10.73;;
6614;SDS011;3343;42.896;23.912;2023-02-15T03:52:01;22.27;;;11.23;;
6614;SDS011;3343;42.896;23.912;2023-02-15T03:54:29;31.80;;;12.57;;
6614;SDS011;3343;42.896;23.912;2023-02-15T03:57:13;15.80;;;8.27;;
6614;SDS011;3343;42.896;23.912;2023-02-15T03:59:59;19.93;;;9.40;;
6614;SDS011;3343;42.896;23.912;2023-02-15T04:02:50;14.07;;;6.37;;
6614;SDS011;3343;42.896;23.912;2023-02-15T04:05:31;10.87;;;6.47;;
6614;SDS011;3343;42.896;23.912;2023-02-15T04:07:58;19.57;;;7.73;;
6614;SDS011;3343;42.896;23.912;2023-02-15T04:10:25;14.03;;;8.37;;
6614;SDS011;3343;42.896;23.912;2023-02-15T04:13:09;15.10;;;7.70;;
6614;SDS011;3343;42.896;23.912;2023-02-15T04:15:36;14.30;;;8.10;;
6614;SDS011;3343;42.896;23.912;2023-02-15T04:18:20;14.97;;;6.60;;
6614;SDS011;3343;42.896;23.912;2023-02-15T04:21:02;11.73;;;6.63;;
6614;SDS011;3343;42.896;23.912;2023-02-15T04:23:47;11.57;;;6.37;;
6614;SDS011;3343;42.896;23.912;2023-02-15T04:26:31;10.43;;;5.47;;
6614;SDS011;3343;42.896;23.912;2023-02-15T04:28:58;10.33;;;5.50;;
6614;SDS011;3343;42.896;23.912;2023-02-15T04:31:25;13.77;;;7.87;;
6614;SDS011;3343;42.896;23.912;2023-02-15T04:33:52;16.60;;;7.87;;
6614;SDS011;3343;42.896;23.912;2023-02-15T04:36:20;12.93;;;7.50;;
6614;SDS011;3343;42.896;23.912;2023-02-15T04:38:47;13.33;;;8.20;;
6614;SDS011;3343;42.896;23.912;2023-02-15T04:41:14;27.50;;;12.77;;
6614;SDS011;3343;42.896;23.912;2023-02-15T04:43:41;20.87;;;11.10;;
6614;SDS011;3343;42.896;23.912;2023-02-15T04:46:08;22.50;;;13.03;;
6614;SDS011;3343;42.896;23.912;2023-02-15T04:48:34;19.90;;;9.97;;
6614;SDS011;3343;42.896;23.912;2023-02-15T04:51:04;16.63;;;8.93;;
6614;SDS011;3343;42.896;23.912;2023-02-15T04:53:33;22.70;;;11.10;;
6614;SDS011;3343;42.896;23.912;2023-02-15T04:56:00;20.07;;;10.67;;
6614;SDS011;3343;42.896;23.912;2023-02-15T04:58:27;13.40;;;7.93;;
6614;SDS011;3343;42.896;23.912;2023-02-15T05:00:54;16.70;;;8.57;;
6614;SDS011;3343;42.896;23.912;2023-02-15T05:03:22;14.80;;;7.40;;
6614;SDS011;3343;42.896;23.912;2023-02-15T05:05:49;17.37;;;7.80;;
6614;SDS011;3343;42.896;23.912;2023-02-15T05:08:17;14.37;;;7.63;;
6614;SDS011;3343;42.896;23.912;2023-02-15T05:10:47;18.67;;;8.70;;
6614;SDS011;3343;42.896;23.912;2023-02-15T05:13:14;14.47;;;8.77;;
6614;SDS011;3343;42.896;23.912;2023-02-15T05:15:45;18.63;;;9.03;;
6614;SDS011;3343;42.896;23.912;2023-02-15T05:18:13;14.67;;;8.43;;
6614;SDS011;3343;42.896;23.912;2023-02-15T05:20:40;16.87;;;8.10;;
6614;SDS011;3343;42.896;23.912;2023-02-15T05:23:07;17.10;;;8.73;;
6614;SDS011;3343;42.896;23.912;2023-02-15T05:25:34;17.30;;;10.37;;
6614;SDS011;3343;42.896;23.912;2023-02-15T05:28:19;17.37;;;8.20;;
6614;SDS011;3343;42.896;23.912;2023-02-15T05:30:47;18.57;;;10.37;;
6614;SDS011;3343;42.896;23.912;2023-02-15T05:33:14;16.47;;;10.00;;
6614;SDS011;3343;42.896;23.912;2023-02-15T05:35:41;21.03;;;10.27;;
6614;SDS011;3343;42.896;23.912;2023-02-15T05:38:08;16.80;;;9.33;;
6614;SDS011;3343;42.896;23.912;2023-02-15T05:40:35;17.47;;;9.00;;
6614;SDS011;3343;42.896;23.912;2023-02-15T05:43:02;20.67;;;9.30;;
6614;SDS011;3343;42.896;23.912;2023-02-15T05:45:30;21.33;;;11.10;;
6614;SDS011;3343;42.896;23.912;2023-02-15T05:47:57;24.50;;;12.80;;
6614;SDS011;3343;42.896;23.912;2023-02-15T05:50:24;24.50;;;11.97;;
6614;SDS011;3343;42.896;23.912;2023-02-15T05:52:52;31.27;;;15.43;;
6614;SDS011;3343;42.896;23.912;2023-02-15T05:55:19;61.20;;;27.03;;
6614;SDS011;3343;42.896;23.912;2023-02-15T05:57:46;61.77;;;29.40;;
6614;SDS011;3343;42.896;23.912;2023-02-15T06:00:13;67.57;;;27.60;;
6614;SDS011;3343;42.896;23.912;2023-02-15T06:02:42;43.57;;;19.83;;
6614;SDS011;3343;42.896;23.912;2023-02-15T06:05:09;37.43;;;17.87;;
6614;SDS011;3343;42.896;23.912;2023-02-15T06:07:35;41.53;;;19.50;;
6614;SDS011;3343;42.896;23.912;2023-02-15T06:10:03;34.83;;;19.87;;
6614;SDS011;3343;42.896;23.912;2023-02-15T06:12:30;40.13;;;22.00;;
6614;SDS011;3343;42.896;23.912;2023-02-15T06:14:57;46.80;;;22.40;;
6614;SDS011;3343;42.896;23.912;2023-02-15T06:17:24;40.13;;;21.47;;
6614;SDS011;3343;42.896;23.912;2023-02-15T06:19:52;51.67;;;23.13;;
6614;SDS011;3343;42.896;23.912;2023-02-15T06:22:19;47.77;;;22.77;;
6614;SDS011;3343;42.896;23.912;2023-02-15T06:24:46;45.17;;;23.40;;
6614;SDS011;3343;42.896;23.912;2023-02-15T06:27:13;44.57;;;23.63;;
6614;SDS011;3343;42.896;23.912;2023-02-15T06:29:40;48.00;;;22.30;;
6614;SDS011;3343;42.896;23.912;2023-02-15T06:32:07;41.93;;;22.37;;
6614;SDS011;3343;42.896;23.912;2023-02-15T06:34:34;51.73;;;21.97;;
6614;SDS011;3343;42.896;23.912;2023-02-15T06:37:02;52.73;;;24.33;;
6614;SDS011;3343;42.896;23.912;2023-02-15T06:39:29;46.50;;;24.00;;
6614;SDS011;3343;42.896;23.912;2023-02-15T06:41:57;41.57;;;22.73;;
6614;SDS011;3343;42.896;23.912;2023-02-15T06:44:24;47.83;;;23.17;;
6614;SDS011;3343;42.896;23.912;2023-02-15T06:46:50;54.50;;;26.27;;
6614;SDS011;3343;42.896;23.912;2023-02-15T06:49:18;55.80;;;27.50;;
6614;SDS011;3343;42.896;23.912;2023-02-15T06:51:44;57.80;;;27.43;;
6614;SDS011;3343;42.896;23.912;2023-02-15T06:54:14;47.77;;;24.63;;
6614;SDS011;3343;42.896;23.912;2023-02-15T06:56:41;50.27;;;24.17;;
6614;SDS011;3343;42.896;23.912;2023-02-15T06:59:08;53.70;;;26.93;;
6614;SDS011;3343;42.896;23.912;2023-02-15T07:01:35;71.17;;;30.10;;
6614;SDS011;3343;42.896;23.912;2023-02-15T07:04:03;79.27;;;33.50;;
6614;SDS011;3343;42.896;23.912;2023-02-15T07:06:30;71.03;;;33.20;;
6614;SDS011;3343;42.896;23.912;2023-02-15T07:08:58;50.20;;;24.53;;
6614;SDS011;3343;42.896;23.912;2023-02-15T07:11:26;53.17;;;25.83;;
6614;SDS011;3343;42.896;23.912;2023-02-15T07:14:07;42.10;;;22.47;;
6614;SDS011;3343;42.896;23.912;2023-02-15T07:16:34;39.43;;;20.10;;
6614;SDS011;3343;42.896;23.912;2023-02-15T07:19:01;39.90;;;20.13;;
6614;SDS011;3343;42.896;23.912;2023-02-15T07:21:28;34.53;;;17.87;;
6614;SDS011;3343;42.896;23.912;2023-02-15T07:23:55;34.73;;;16.87;;
6614;SDS011;3343;42.896;23.912;2023-02-15T07:26:22;27.27;;;15.20;;
6614;SDS011;3343;42.896;23.912;2023-02-15T07:28:51;25.63;;;14.47;;
6614;SDS011;3343;42.896;23.912;2023-02-15T07:31:18;23.17;;;11.63;;
6614;SDS011;3343;42.896;23.912;2023-02-15T07:33:44;23.13;;;11.30;;
6614;SDS011;3343;42.896;23.912;2023-02-15T07:36:11;22.13;;;11.77;;
6614;SDS011;3343;42.896;23.912;2023-02-15T07:38:39;22.20;;;11.30;;
6614;SDS011;3343;42.896;23.912;2023-02-15T07:41:09;21.53;;;11.80;;
6614;SDS011;3343;42.896;23.912;2023-02-15T07:43:40;20.97;;;10.50;;
6614;SDS011;3343;42.896;23.912;2023-02-15T07:46:11;22.90;;;12.20;;
6614;SDS011;3343;42.896;23.912;2023-02-15T07:48:40;22.40;;;12.43;;
6614;SDS011;3343;42.896;23.912;2023-02-15T07:51:11;21.23;;;11.53;;
6614;SDS011;3343;42.896;23.912;2023-02-15T07:53:39;23.23;;;12.33;;
6614;SDS011;3343;42.896;23.912;2023-02-15T07:56:07;23.40;;;12.47;;
6614;SDS011;3343;42.896;23.912;2023-02-15T07:58:36;29.57;;;14.50;;
6614;SDS011;3343;42.896;23.912;2023-02-15T08:01:21;31.13;;;15.43;;
6614;SDS011;3343;42.896;23.912;2023-02-15T08:03:49;37.20;;;17.13;;
6614;SDS011;3343;42.896;23.912;2023-02-15T08:06:16;38.63;;;17.00;;
6614;SDS011;3343;42.896;23.912;2023-02-15T08:08:44;31.30;;;15.40;;
6614;SDS011;3343;42.896;23.912;2023-02-15T08:11:15;30.73;;;16.07;;
6614;SDS011;3343;42.896;23.912;2023-02-15T08:13:59;43.30;;;19.57;;
6614;SDS011;3343;42.896;23.912;2023-02-15T08:16:31;39.43;;;19.27;;
6614;SDS011;3343;42.896;23.912;2023-02-15T08:19:00;38.07;;;19.27;;
6614;SDS011;3343;42.896;23.912;2023-02-15T08:21:30;33.83;;;16.83;;
6614;SDS011;3343;42.896;23.912;2023-02-15T08:23:57;34.93;;;16.73;;
6614;SDS011;3343;42.896;23.912;2023-02-15T08:26:25;34.77;;;16.87;;
6614;SDS011;3343;42.896;23.912;2023-02-15T08:28:53;36.30;;;17.70;;
6614;SDS011;3343;42.896;23.912;2023-02-15T08:31:21;36.60;;;19.30;;
6614;SDS011;3343;42.896;23.912;2023-02-15T08:33:50;38.23;;;17.10;;
6614;SDS011;3343;42.896;23.912;2023-02-15T08:36:19;37.73;;;16.47;;
6614;SDS011;3343;42.896;23.912;2023-02-15T08:38:47;34.63;;;16.47;;
6614;SDS011;3343;42.896;23.912;2023-02-15T08:41:16;35.77;;;16.10;;
6614;SDS011;3343;42.896;23.912;2023-02-15T08:43:45;35.53;;;17.40;;
6614;SDS011;3343;42.896;23.912;2023-02-15T08:46:14;32.53;;;15.63;;
6614;SDS011;3343;42.896;23.912;2023-02-15T08:48:42;32.47;;;16.50;;
6614;SDS011;3343;42.896;23.912;2023-02-15T08:51:11;29.07;;;16.03;;
6614;SDS011;3343;42.896;23.912;2023-02-15T08:53:40;37.20;;;16.23;;
6614;SDS011;3343;42.896;23.912;2023-02-15T08:56:09;32.40;;;17.53;;
6614;SDS011;3343;42.896;23.912;2023-02-15T08:58:37;33.50;;;17.10;;
6614;SDS011;3343;42.896;23.912;2023-02-15T09:01:10;30.70;;;15.57;;
6614;SDS011;3343;42.896;23.912;2023-02-15T09:03:39;19.50;;;11.57;;
6614;SDS011;3343;42.896;23.912;2023-02-15T09:06:06;21.77;;;11.57;;
6614;SDS011;3343;42.896;23.912;2023-02-15T09:08:34;15.73;;;8.00;;
6614;SDS011;3343;42.896;23.912;2023-02-15T09:11:08;12.90;;;7.83;;
6614;SDS011;3343;42.896;23.912;2023-02-15T09:13:37;15.57;;;9.10;;
6614;SDS011;3343;42.896;23.912;2023-02-15T09:16:05;17.10;;;9.03;;
6614;SDS011;3343;42.896;23.912;2023-02-15T09:18:34;17.80;;;9.60;;
6614;SDS011;3343;42.896;23.912;2023-02-15T09:21:06;15.80;;;9.03;;
6614;SDS011;3343;42.896;23.912;2023-02-15T09:23:36;20.40;;;9.63;;
6614;SDS011;3343;42.896;23.912;2023-02-15T09:26:07;14.37;;;7.50;;
6614;SDS011;3343;42.896;23.912;2023-02-15T09:28:35;8.80;;;5.37;;
6614;SDS011;3343;42.896;23.912;2023-02-15T09:31:06;9.57;;;5.47;;
6614;SDS011;3343;42.896;23.912;2023-02-15T09:33:35;11.87;;;6.37;;
6614;SDS011;3343;42.896;23.912;2023-02-15T09:36:02;11.50;;;5.80;;
6614;SDS011;3343;42.896;23.912;2023-02-15T09:38:29;8.90;;;5.03;;
6614;SDS011;3343;42.896;23.912;2023-02-15T09:41:01;11.57;;;5.63;;
6614;SDS011;3343;42.896;23.912;2023-02-15T09:43:38;9.70;;;5.97;;
6614;SDS011;3343;42.896;23.912;2023-02-15T09:46:22;9.37;;;5.57;;
6614;SDS011;3343;42.896;23.912;2023-02-15T09:49:03;10.37;;;5.33;;
6614;SDS011;3343;42.896;23.912;2023-02-15T09:51:45;9.60;;;5.00;;
6614;SDS011;3343;42.896;23.912;2023-02-15T09:54:27;7.37;;;4.70;;
6614;SDS011;3343;42.896;23.912;2023-02-15T09:57:07;6.90;;;4.57;;
6614;SDS011;3343;42.896;23.912;2023-02-15T09:59:40;8.13;;;4.80;;
6614;SDS011;3343;42.896;23.912;2023-02-15T10:02:20;10.23;;;4.53;;
6614;SDS011;3343;42.896;23.912;2023-02-15T10:05:00;10.43;;;4.53;;
6614;SDS011;3343;42.896;23.912;2023-02-15T10:07:40;12.60;;;5.17;;
6614;SDS011;3343;42.896;23.912;2023-02-15T10:10:26;11.33;;;5.80;;
6614;SDS011;3343;42.896;23.912;2023-02-15T10:13:08;11.50;;;4.83;;
6614;SDS011;3343;42.896;23.912;2023-02-15T10:15:52;10.60;;;5.47;;
6614;SDS011;3343;42.896;23.912;2023-02-15T10:18:39;9.83;;;5.47;;
6614;SDS011;3343;42.896;23.912;2023-02-15T10:21:19;8.83;;;5.00;;
6614;SDS011;3343;42.896;23.912;2023-02-15T10:24:00;9.53;;;4.63;;
6614;SDS011;3343;42.896;23.912;2023-02-15T10:26:40;9.73;;;5.03;;
6614;SDS011;3343;42.896;23.912;2023-02-15T10:29:15;9.87;;;5.83;;
6614;SDS011;3343;42.896;23.912;2023-02-15T10:31:54;11.13;;;5.47;;
6614;SDS011;3343;42.896;23.912;2023-02-15T10:34:31;8.93;;;4.50;;
6614;SDS011;3343;42.896;23.912;2023-02-15T10:40:00;9.57;;;4.70;;
6614;SDS011;3343;42.896;23.912;2023-02-15T10:42:35;10.07;;;5.87;;
6614;SDS011;3343;42.896;23.912;2023-02-15T10:45:18;12.00;;;5.23;;
6614;SDS011;3343;42.896;23.912;2023-02-15T10:47:55;12.20;;;4.83;;
6614;SDS011;3343;42.896;23.912;2023-02-15T10:50:34;8.60;;;4.40;;
6614;SDS011;3343;42.896;23.912;2023-02-15T10:53:15;8.23;;;4.33;;
6614;SDS011;3343;42.896;23.912;2023-02-15T10:55:59;8.93;;;5.30;;
6614;SDS011;3343;42.896;23.912;2023-02-15T10:58:38;10.47;;;5.73;;
6614;SDS011;3343;42.896;23.912;2023-02-15T11:01:21;12.53;;;6.17;;
6614;SDS011;3343;42.896;23.912;2023-02-15T11:04:02;11.47;;;5.30;;
6614;SDS011;3343;42.896;23.912;2023-02-15T11:07:02;11.50;;;5.20;;
6614;SDS011;3343;42.896;23.912;2023-02-15T11:09:35;9.20;;;5.33;;
6614;SDS011;3343;42.896;23.912;2023-02-15T11:12:07;8.03;;;4.97;;
6614;SDS011;3343;42.896;23.912;2023-02-15T11:14:39;10.87;;;5.30;;
6614;SDS011;3343;42.896;23.912;2023-02-15T11:17:13;10.80;;;6.10;;
6614;SDS011;3343;42.896;23.912;2023-02-15T11:19:47;9.67;;;5.50;;
6614;SDS011;3343;42.896;23.912;2023-02-15T11:22:21;8.70;;;5.20;;
6614;SDS011;3343;42.896;23.912;2023-02-15T11:24:48;9.87;;;5.70;;
6614;SDS011;3343;42.896;23.912;2023-02-15T11:27:17;10.37;;;6.17;;
6614;SDS011;3343;42.896;23.912;2023-02-15T11:29:50;12.40;;;6.57;;
6614;SDS011;3343;42.896;23.912;2023-02-15T11:32:23;12.30;;;5.43;;
6614;SDS011;3343;42.896;23.912;2023-02-15T11:34:53;12.73;;;5.63;;
6614;SDS011;3343;42.896;23.912;2023-02-15T11:37:27;11.60;;;7.40;;
6614;SDS011;3343;42.896;23.912;2023-02-15T11:39:58;12.20;;;6.27;;
6614;SDS011;3343;42.896;23.912;2023-02-15T11:42:28;20.40;;;9.80;;
6614;SDS011;3343;42.896;23.912;2023-02-15T11:44:58;16.63;;;9.17;;
6614;SDS011;3343;42.896;23.912;2023-02-15T11:47:32;12.33;;;6.33;;
6614;SDS011;3343;42.896;23.912;2023-02-15T11:49:59;10.20;;;5.37;;
6614;SDS011;3343;42.896;23.912;2023-02-15T11:52:26;8.80;;;4.30;;
6614;SDS011;3343;42.896;23.912;2023-02-15T11:54:53;7.83;;;4.77;;
6614;SDS011;3343;42.896;23.912;2023-02-15T11:57:21;8.57;;;4.83;;
6614;SDS011;3343;42.896;23.912;2023-02-15T11:59:52;7.43;;;4.30;;
6614;SDS011;3343;42.896;23.912;2023-02-15T12:02:24;7.20;;;4.67;;
6614;SDS011;3343;42.896;23.912;2023-02-15T12:04:54;8.20;;;4.53;;
6614;SDS011;3343;42.896;23.912;2023-02-15T12:07:26;9.07;;;4.37;;
6614;SDS011;3343;42.896;23.912;2023-02-15T12:09:59;11.90;;;6.07;;
6614;SDS011;3343;42.896;23.912;2023-02-15T12:12:32;9.47;;;5.30;;
6614;SDS011;3343;42.896;23.912;2023-02-15T12:15:01;9.97;;;5.90;;
6614;SDS011;3343;42.896;23.912;2023-02-15T12:17:31;7.90;;;5.27;;
6614;SDS011;3343;42.896;23.912;2023-02-15T12:20:02;10.07;;;6.20;;
6614;SDS011;3343;42.896;23.912;2023-02-15T12:22:33;10.40;;;5.77;;
6614;SDS011;3343;42.896;23.912;2023-02-15T12:25:04;10.13;;;5.80;;
6614;SDS011;3343;42.896;23.912;2023-02-15T12:27:47;10.77;;;5.67;;
6614;SDS011;3343;42.896;23.912;2023-02-15T12:30:16;12.77;;;6.30;;
6614;SDS011;3343;42.896;23.912;2023-02-15T12:32:48;11.37;;;6.20;;
6614;SDS011;3343;42.896;23.912;2023-02-15T12:35:21;9.53;;;5.57;;
6614;SDS011;3343;42.896;23.912;2023-02-15T12:37:55;10.80;;;5.97;;
6614;SDS011;3343;42.896;23.912;2023-02-15T12:40:25;8.30;;;4.73;;
6614;SDS011;3343;42.896;23.912;2023-02-15T12:42:54;7.67;;;4.50;;
6614;SDS011;3343;42.896;23.912;2023-02-15T12:45:22;7.20;;;4.27;;
6614;SDS011;3343;42.896;23.912;2023-02-15T12:48:13;8.03;;;4.73;;
6614;SDS011;3343;42.896;23.912;2023-02-15T12:50:43;9.07;;;4.77;;
6614;SDS011;3343;42.896;23.912;2023-02-15T12:53:16;8.30;;;5.23;;
6614;SDS011;3343;42.896;23.912;2023-02-15T12:55:52;7.60;;;4.37;;
6614;SDS011;3343;42.896;23.912;2023-02-15T12:58:21;6.77;;;4.30;;
6614;SDS011;3343;42.896;23.912;2023-02-15T13:01:01;17.40;;;8.03;;
6614;SDS011;3343;42.896;23.912;2023-02-15T13:03:36;15.93;;;6.83;;
6614;SDS011;3343;42.896;23.912;2023-02-15T13:06:07;8.03;;;5.23;;
6614;SDS011;3343;42.896;23.912;2023-02-15T13:08:34;7.93;;;4.63;;
6614;SDS011;3343;42.896;23.912;2023-02-15T13:11:06;13.50;;;4.70;;
6614;SDS011;3343;42.896;23.912;2023-02-15T13:13:36;7.63;;;4.83;;
6614;SDS011;3343;42.896;23.912;2023-02-15T13:16:14;10.57;;;5.13;;
6614;SDS011;3343;42.896;23.912;2023-02-15T13:18:43;7.90;;;5.03;;
6614;SDS011;3343;42.896;23.912;2023-02-15T13:21:15;9.23;;;5.00;;
6614;SDS011;3343;42.896;23.912;2023-02-15T13:23:46;8.20;;;4.73;;
6614;SDS011;3343;42.896;23.912;2023-02-15T13:26:16;6.53;;;4.57;;
6614;SDS011;3343;42.896;23.912;2023-02-15T13:28:46;8.20;;;4.53;;
6614;SDS011;3343;42.896;23.912;2023-02-15T13:31:15;9.33;;;4.93;;
6614;SDS011;3343;42.896;23.912;2023-02-15T13:33:45;9.80;;;5.20;;
6614;SDS011;3343;42.896;23.912;2023-02-15T13:36:19;9.33;;;4.97;;
6614;SDS011;3343;42.896;23.912;2023-02-15T13:38:54;9.07;;;4.77;;
6614;SDS011;3343;42.896;23.912;2023-02-15T13:41:30;9.87;;;4.43;;
6614;SDS011;3343;42.896;23.912;2023-02-15T13:44:03;6.93;;;3.90;;
6614;SDS011;3343;42.896;23.912;2023-02-15T13:47:01;8.27;;;4.73;;
6614;SDS011;3343;42.896;23.912;2023-02-15T13:49:39;8.70;;;4.47;;
6614;SDS011;3343;42.896;23.912;2023-02-15T13:52:19;7.77;;;4.60;;
6614;SDS011;3343;42.896;23.912;2023-02-15T13:54:52;8.47;;;5.00;;
6614;SDS011;3343;42.896;23.912;2023-02-15T13:57:40;9.07;;;4.67;;
6614;SDS011;3343;42.896;23.912;2023-02-15T14:00:28;9.03;;;3.97;;
6614;SDS011;3343;42.896;23.912;2023-02-15T14:03:18;7.53;;;4.13;;
6614;SDS011;3343;42.896;23.912;2023-02-15T14:06:11;8.43;;;4.63;;
6614;SDS011;3343;42.896;23.912;2023-02-15T14:08:58;7.30;;;4.00;;
6614;SDS011;3343;42.896;23.912;2023-02-15T14:11:37;11.53;;;4.03;;
6614;SDS011;3343;42.896;23.912;2023-02-15T14:14:15;9.30;;;4.20;;
6614;SDS011;3343;42.896;23.912;2023-02-15T14:17:08;7.23;;;4.03;;
6614;SDS011;3343;42.896;23.912;2023-02-15T14:19:43;6.07;;;4.10;;
6614;SDS011;3343;42.896;23.912;2023-02-15T14:22:17;5.63;;;4.23;;
6614;SDS011;3343;42.896;23.912;2023-02-15T14:24:55;8.60;;;3.90;;
6614;SDS011;3343;42.896;23.912;2023-02-15T14:27:39;6.00;;;4.00;;
6614;SDS011;3343;42.896;23.912;2023-02-15T14:30:16;6.33;;;4.37;;
6614;SDS011;3343;42.896;23.912;2023-02-15T14:32:47;6.83;;;4.83;;
6614;SDS011;3343;42.896;23.912;2023-02-15T14:35:18;4.43;;;3.50;;
6614;SDS011;3343;42.896;23.912;2023-02-15T14:37:48;6.87;;;4.27;;
6614;SDS011;3343;42.896;23.912;2023-02-15T14:40:26;7.37;;;3.80;;
6614;SDS011;3343;42.896;23.912;2023-02-15T14:43:20;6.23;;;3.97;;
6614;SDS011;3343;42.896;23.912;2023-02-15T14:45:54;10.60;;;3.80;;
6614;SDS011;3343;42.896;23.912;2023-02-15T14:48:24;5.20;;;3.20;;
6614;SDS011;3343;42.896;23.912;2023-02-15T14:50:55;7.87;;;4.13;;
6614;SDS011;3343;42.896;23.912;2023-02-15T14:53:32;8.20;;;4.43;;
6614;SDS011;3343;42.896;23.912;2023-02-15T14:59:12;9.03;;;4.57;;
6614;SDS011;3343;42.896;23.912;2023-02-15T15:01:42;9.77;;;5.73;;
6614;SDS011;3343;42.896;23.912;2023-02-15T15:04:23;9.90;;;5.20;;
6614;SDS011;3343;42.896;23.912;2023-02-15T15:06:59;5.83;;;3.30;;
6614;SDS011;3343;42.896;23.912;2023-02-15T15:09:32;7.57;;;4.07;;
6614;SDS011;3343;42.896;23.912;2023-02-15T15:12:18;6.87;;;3.47;;
6614;SDS011;3343;42.896;23.912;2023-02-15T15:15:04;8.07;;;4.17;;
6614;SDS011;3343;42.896;23.912;2023-02-15T15:20:38;8.93;;;4.20;;
6614;SDS011;3343;42.896;23.912;2023-02-15T15:26:23;6.07;;;3.97;;
6614;SDS011;3343;42.896;23.912;2023-02-15T15:28:54;6.80;;;3.90;;
6614;SDS011;3343;42.896;23.912;2023-02-15T15:31:27;6.50;;;3.73;;